createdAt,value
2023-04-08T00:02:17.633Z,8.41
2023-04-08T00:05:04.959Z,8.49
2023-04-08T00:07:51.775Z,8.37
2023-04-08T00:10:38.601Z,8.47
2023-04-08T00:13:26.964Z,8.43
2023-04-08T00:16:13.762Z,8.41
2023-04-08T00:19:00.498Z,8.43
2023-04-08T00:21:47.712Z,8.35
2023-04-08T00:24:34.546Z,8.21
2023-04-08T00:27:21.200Z,8.15
2023-04-08T00:30:10.252Z,8.18
2023-04-08T00:32:57.575Z,8.15
2023-04-08T00:35:44.104Z,8.30
2023-04-08T00:38:31.026Z,8.39
2023-04-08T00:41:17.745Z,8.38
2023-04-08T00:44:04.756Z,8.20
2023-04-08T00:46:52.917Z,8.42
2023-04-08T00:49:39.728Z,8.37
2023-04-08T00:52:26.764Z,8.25
2023-04-08T00:55:13.467Z,8.25
2023-04-08T00:58:00.452Z,8.37
2023-04-08T01:00:55.802Z,8.48
2023-04-08T01:03:58.266Z,8.51
2023-04-08T01:06:50.788Z,8.64
2023-04-08T01:09:40.427Z,8.47
2023-04-08T01:12:28.680Z,8.48
2023-04-08T01:15:17.090Z,8.24
2023-04-08T01:18:08.449Z,8.39
2023-04-08T01:20:57.606Z,8.42
2023-04-08T01:24:00.734Z,8.38
2023-04-08T01:26:49.070Z,8.43
2023-04-08T01:29:36.556Z,8.42
2023-04-08T01:32:28.323Z,8.34
2023-04-08T01:35:17.317Z,8.34
2023-04-08T01:38:06.313Z,8.35
2023-04-08T01:40:54.458Z,8.29
2023-04-08T01:43:44.920Z,8.31
2023-04-08T01:46:33.273Z,8.37
2023-04-08T01:49:20.670Z,8.32
2023-04-08T01:52:10.479Z,8.32
2023-04-08T01:54:58.099Z,8.22
2023-04-08T01:57:48.954Z,8.22
2023-04-08T02:00:38.431Z,8.36
2023-04-08T02:03:26.915Z,8.22
2023-04-08T02:06:14.420Z,7.88
2023-04-08T02:09:02.146Z,8.14
2023-04-08T02:11:48.834Z,8.06
2023-04-08T02:14:35.754Z,8.10
2023-04-08T02:17:35.890Z,8.14
2023-04-08T02:20:25.519Z,8.21
2023-04-08T02:23:16.712Z,8.10
2023-04-08T02:26:05.981Z,8.17
2023-04-08T02:28:55.429Z,8.11
2023-04-08T02:31:43.460Z,8.19
2023-04-08T02:34:31.910Z,8.24
2023-04-08T02:37:21.079Z,8.21
2023-04-08T02:40:26.502Z,8.35
2023-04-08T02:43:13.191Z,8.39
2023-04-08T02:46:03.590Z,8.29
2023-04-08T02:48:50.774Z,8.25
2023-04-08T02:51:38.592Z,8.14
2023-04-08T02:54:25.855Z,8.27
2023-04-08T02:57:13.126Z,8.41
2023-04-08T02:59:59.562Z,8.28
2023-04-08T03:02:46.546Z,8.38
2023-04-08T03:05:33.662Z,8.30
2023-04-08T03:08:21.868Z,8.28
2023-04-08T03:11:08.611Z,8.49
2023-04-08T03:13:55.537Z,8.34
2023-04-08T03:16:42.271Z,8.40
2023-04-08T03:19:28.971Z,8.42
2023-04-08T03:22:15.738Z,8.57
2023-04-08T03:25:04.491Z,8.28
2023-04-08T03:27:51.155Z,8.42
2023-04-08T03:30:38.215Z,8.60
2023-04-08T03:33:25.037Z,8.35
2023-04-08T03:36:12.315Z,8.48
2023-04-08T03:38:59.253Z,8.37
2023-04-08T03:41:47.409Z,8.25
2023-04-08T03:44:34.419Z,8.53
2023-04-08T03:47:21.009Z,8.41
2023-04-08T03:50:08.930Z,8.53
2023-04-08T03:52:55.881Z,8.34
2023-04-08T03:55:42.598Z,8.44
2023-04-08T03:58:30.714Z,8.35
2023-04-08T04:01:17.783Z,8.31
2023-04-08T04:04:04.787Z,7.99
2023-04-08T04:06:51.471Z,8.27
2023-04-08T04:09:38.293Z,8.00
2023-04-08T04:12:25.339Z,8.31
2023-04-08T04:15:13.639Z,8.18
2023-04-08T04:18:00.428Z,8.35
2023-04-08T04:20:47.461Z,8.23
2023-04-08T04:23:34.312Z,8.21
2023-04-08T04:26:21.088Z,8.32
2023-04-08T04:29:08.099Z,8.22
2023-04-08T04:31:56.126Z,8.32
2023-04-08T04:34:44.516Z,8.39
2023-04-08T04:37:31.434Z,8.35
2023-04-08T04:40:18.076Z,8.54
2023-04-08T04:43:04.801Z,8.56
2023-04-08T04:45:51.733Z,8.40
2023-04-08T04:48:39.734Z,8.56
2023-04-08T04:51:27.191Z,8.57
2023-04-08T04:54:13.758Z,8.54
2023-04-08T04:57:01.124Z,8.51
2023-04-08T04:59:47.903Z,8.48
2023-04-08T05:02:34.924Z,8.59
2023-04-08T05:05:23.432Z,8.68
2023-04-08T05:08:10.359Z,8.67
2023-04-08T05:10:57.057Z,8.75
2023-04-08T05:13:43.887Z,8.71
2023-04-08T05:16:30.994Z,8.75
2023-04-08T05:19:17.659Z,8.71
2023-04-08T05:22:05.711Z,8.35
2023-04-08T05:24:52.633Z,8.44
2023-04-08T05:27:40.575Z,8.65
2023-04-08T05:30:27.264Z,8.63
2023-04-08T05:33:13.954Z,8.66
2023-04-08T05:36:00.794Z,8.68
2023-04-08T05:38:49.166Z,8.50
2023-04-08T05:41:36.168Z,8.52
2023-04-08T05:44:23.053Z,8.52
2023-04-08T05:47:09.835Z,8.77
2023-04-08T05:49:56.900Z,8.57
2023-04-08T05:52:44.921Z,8.69
2023-04-08T05:55:33.004Z,8.78
2023-04-08T05:58:19.735Z,8.82
2023-04-08T06:01:07.505Z,8.72
2023-04-08T06:03:56.368Z,8.98
2023-04-08T06:06:43.092Z,9.06
2023-04-08T06:09:29.893Z,9.00
2023-04-08T06:12:18.152Z,9.02
2023-04-08T06:15:05.328Z,9.05
2023-04-08T06:17:51.948Z,9.08
2023-04-08T06:20:38.811Z,9.25
2023-04-08T06:23:25.806Z,9.22
2023-04-08T06:26:13.394Z,9.15
2023-04-08T06:29:02.064Z,9.31
2023-04-08T06:31:48.769Z,9.11
2023-04-08T06:34:35.722Z,9.12
2023-04-08T06:37:22.476Z,9.22
2023-04-08T06:40:10.325Z,9.28
2023-04-08T06:42:57.235Z,9.38
2023-04-08T06:45:57.073Z,9.52
2023-04-08T06:48:43.830Z,9.50
2023-04-08T06:51:31.544Z,9.54
2023-04-08T06:54:18.225Z,9.36
2023-04-08T06:57:05.393Z,9.56
2023-04-08T06:59:53.584Z,9.73
2023-04-08T07:02:42.090Z,9.76
2023-04-08T07:05:28.960Z,9.81
2023-04-08T07:08:15.748Z,9.72
2023-04-08T07:11:02.630Z,9.80
2023-04-08T07:13:49.163Z,9.53
2023-04-08T07:16:36.073Z,9.71
2023-04-08T07:19:24.570Z,9.69
2023-04-08T07:22:11.538Z,9.72
2023-04-08T07:24:58.118Z,9.77
2023-04-08T07:27:45.009Z,9.89
2023-04-08T07:30:31.977Z,10.05
2023-04-08T07:33:18.620Z,10.33
2023-04-08T07:36:07.336Z,10.46
2023-04-08T07:38:53.870Z,10.47
2023-04-08T07:41:40.735Z,10.52
2023-04-08T07:44:27.567Z,10.38
2023-04-08T07:47:14.447Z,10.45
2023-04-08T07:50:01.274Z,10.64
2023-04-08T07:52:49.349Z,10.74
2023-04-08T07:55:36.324Z,10.71
2023-04-08T07:58:23.017Z,10.79
2023-04-08T08:01:18.047Z,10.84
2023-04-08T08:04:05.674Z,10.47
2023-04-08T08:06:52.916Z,10.50
2023-04-08T08:09:40.956Z,10.48
2023-04-08T08:12:27.576Z,10.47
2023-04-08T08:15:14.973Z,10.60
2023-04-08T08:18:01.596Z,10.11
2023-04-08T08:20:48.396Z,10.26
2023-04-08T08:23:35.227Z,10.59
2023-04-08T08:26:23.548Z,10.79
2023-04-08T08:29:10.334Z,10.67
2023-04-08T08:31:56.938Z,10.70
2023-04-08T08:34:43.808Z,10.68
2023-04-08T08:37:30.774Z,10.87
2023-04-08T08:40:17.916Z,10.95
2023-04-08T08:43:05.931Z,11.12
2023-04-08T08:45:52.953Z,11.38
2023-04-08T08:48:40.832Z,11.41
2023-04-08T08:51:29.044Z,11.59
2023-04-08T08:54:17.025Z,10.96
2023-04-08T08:57:03.563Z,11.13
2023-04-08T08:59:51.636Z,11.32
2023-04-08T09:02:38.554Z,11.30
2023-04-08T09:05:25.240Z,11.48
2023-04-08T09:08:24.717Z,11.66
2023-04-08T09:11:16.401Z,11.49
2023-04-08T09:14:03.219Z,11.41
2023-04-08T09:16:52.380Z,11.62
2023-04-08T09:19:39.035Z,11.74
2023-04-08T09:22:26.220Z,11.77
2023-04-08T09:25:24.326Z,12.00
2023-04-08T09:28:21.534Z,11.57
2023-04-08T09:31:23.312Z,10.73
2023-04-08T09:34:14.659Z,11.54
2023-04-08T09:37:01.569Z,11.75
2023-04-08T09:39:48.944Z,12.01
2023-04-08T09:42:40.873Z,11.91
2023-04-08T09:45:28.475Z,12.57
2023-04-08T09:48:24.381Z,12.73
2023-04-08T09:51:17.452Z,13.06
2023-04-08T09:54:07.915Z,13.54
2023-04-08T09:57:03.643Z,13.30
2023-04-08T09:59:59.360Z,13.40
2023-04-08T10:02:56.682Z,13.73
2023-04-08T10:05:45.085Z,13.52
2023-04-08T10:08:33.932Z,12.78
2023-04-08T10:11:21.366Z,12.84
2023-04-08T10:14:11.910Z,13.24
2023-04-08T10:17:25.663Z,13.73
2023-04-08T10:20:43.046Z,14.03
2023-04-08T10:23:59.937Z,14.07
2023-04-08T10:26:48.906Z,13.96
2023-04-08T10:29:35.753Z,14.19
2023-04-08T10:32:41.897Z,14.63
2023-04-08T10:35:30.492Z,14.95
2023-04-08T10:38:18.027Z,14.68
2023-04-08T10:41:06.371Z,14.54
2023-04-08T10:43:53.245Z,14.15
2023-04-08T10:46:40.102Z,14.84
2023-04-08T10:49:34.689Z,14.93
2023-04-08T10:52:21.918Z,14.96
2023-04-08T10:55:09.203Z,15.33
2023-04-08T10:57:58.287Z,15.15
2023-04-08T11:00:45.283Z,15.34
2023-04-08T11:03:33.998Z,15.28
2023-04-08T11:06:20.840Z,14.69
2023-04-08T11:09:07.676Z,14.67
2023-04-08T11:11:55.091Z,14.69
2023-04-08T11:14:44.114Z,14.65
2023-04-08T11:17:31.353Z,15.06
2023-04-08T11:20:18.545Z,14.89
2023-04-08T11:23:05.122Z,15.14
2023-04-08T11:25:56.652Z,14.85
2023-04-08T11:28:44.719Z,14.45
2023-04-08T11:31:33.885Z,14.82
2023-04-08T11:34:25.018Z,15.13
2023-04-08T11:37:11.750Z,14.99
2023-04-08T11:39:58.455Z,15.13
2023-04-08T11:42:47.026Z,14.83
2023-04-08T11:45:39.760Z,14.95
2023-04-08T11:48:28.932Z,15.03
2023-04-08T11:51:16.198Z,15.09
2023-04-08T11:54:06.252Z,15.24
2023-04-08T11:56:53.653Z,14.97
2023-04-08T11:59:40.298Z,15.13
2023-04-08T12:02:27.484Z,15.37
2023-04-08T12:05:16.069Z,15.46
2023-04-08T12:08:02.608Z,15.27
2023-04-08T12:10:49.457Z,15.05
2023-04-08T12:13:36.130Z,15.09
2023-04-08T12:16:22.971Z,15.01
2023-04-08T12:19:09.836Z,15.07
2023-04-08T12:21:57.859Z,15.02
2023-04-08T12:24:44.679Z,15.40
2023-04-08T12:27:33.536Z,15.18
2023-04-08T12:30:20.438Z,15.14
2023-04-08T12:33:07.301Z,15.22
2023-04-08T12:35:54.310Z,15.38
2023-04-08T12:38:42.200Z,15.79
2023-04-08T12:41:28.874Z,15.45
2023-04-08T12:44:15.626Z,15.24
2023-04-08T12:47:02.597Z,15.26
2023-04-08T12:49:50.173Z,15.02
2023-04-08T12:52:36.598Z,14.98
2023-04-08T12:55:26.115Z,14.89
2023-04-08T12:58:12.987Z,14.98
2023-04-08T13:00:59.760Z,15.28
2023-04-08T13:03:48.037Z,15.69
2023-04-08T13:06:34.838Z,16.00
2023-04-08T13:09:25.292Z,16.49
2023-04-08T13:12:16.315Z,16.07
2023-04-08T13:15:03.106Z,16.10
2023-04-08T13:17:50.324Z,15.51
2023-04-08T13:20:38.202Z,15.44
2023-04-08T13:23:24.923Z,15.66
2023-04-08T13:26:11.590Z,15.61
2023-04-08T13:29:00.206Z,15.51
2023-04-08T13:31:47.149Z,15.66
2023-04-08T13:34:33.548Z,15.79
2023-04-08T13:37:20.238Z,15.79
2023-04-08T13:40:08.920Z,16.21
2023-04-08T13:42:55.961Z,16.56
2023-04-08T13:45:44.741Z,16.83
2023-04-08T13:48:31.507Z,16.70
2023-04-08T13:51:18.123Z,16.61
2023-04-08T13:54:05.237Z,16.62
2023-04-08T13:56:51.788Z,17.03
2023-04-08T13:59:38.733Z,16.98
2023-04-08T14:02:26.968Z,17.18
2023-04-08T14:05:13.867Z,16.91
2023-04-08T14:08:00.819Z,16.26
2023-04-08T14:10:47.868Z,15.94
2023-04-08T14:13:34.425Z,15.69
2023-04-08T14:16:21.481Z,15.64
2023-04-08T14:19:09.521Z,16.06
2023-04-08T14:21:56.427Z,16.14
2023-04-08T14:24:44.041Z,16.47
2023-04-08T14:27:30.940Z,16.19
2023-04-08T14:30:17.725Z,16.16
2023-04-08T14:33:05.535Z,16.20
2023-04-08T14:35:55.308Z,16.39
2023-04-08T14:38:41.929Z,16.25
2023-04-08T14:41:29.401Z,16.10
2023-04-08T14:44:16.185Z,15.79
2023-04-08T14:47:03.174Z,15.73
2023-04-08T14:49:49.681Z,15.59
2023-04-08T14:52:37.767Z,15.41
2023-04-08T14:55:25.872Z,15.40
2023-04-08T14:58:12.872Z,15.54
2023-04-08T15:00:59.454Z,15.45
2023-04-08T15:03:46.489Z,15.89
2023-04-08T15:06:33.012Z,16.14
2023-04-08T15:09:21.039Z,15.96
2023-04-08T15:12:07.767Z,16.25
2023-04-08T15:14:54.599Z,16.64
2023-04-08T15:17:41.393Z,16.55
2023-04-08T15:20:28.128Z,16.53
2023-04-08T15:23:15.171Z,16.63
2023-04-08T15:26:02.988Z,16.68
2023-04-08T15:28:49.784Z,16.62
2023-04-08T15:31:36.653Z,16.69
2023-04-08T15:34:24.007Z,15.93
2023-04-08T15:37:11.067Z,15.93
2023-04-08T15:39:57.636Z,15.91
2023-04-08T15:42:46.174Z,15.86
2023-04-08T15:45:33.618Z,15.87
2023-04-08T15:48:20.694Z,15.78
2023-04-08T15:51:12.682Z,15.97
2023-04-08T15:53:59.235Z,16.08
2023-04-08T15:56:46.703Z,16.28
2023-04-08T15:59:34.556Z,16.16
2023-04-08T16:02:21.442Z,16.34
2023-04-08T16:05:09.254Z,16.37
2023-04-08T16:07:55.591Z,15.69
2023-04-08T16:10:42.389Z,15.40
2023-04-08T16:13:30.080Z,15.15
2023-04-08T16:16:18.117Z,15.47
2023-04-08T16:19:05.016Z,15.25
2023-04-08T16:21:51.776Z,15.34
2023-04-08T16:24:38.635Z,15.40
2023-04-08T16:27:25.426Z,15.54
2023-04-08T16:30:13.056Z,15.10
2023-04-08T16:33:01.527Z,15.51
2023-04-08T16:35:49.343Z,15.59
2023-04-08T16:38:35.928Z,15.36
2023-04-08T16:41:23.104Z,15.43
2023-04-08T16:44:09.527Z,15.32
2023-04-08T16:46:56.509Z,15.28
2023-04-08T16:49:44.355Z,15.28
2023-04-08T16:52:31.226Z,15.29
2023-04-08T16:55:18.267Z,15.37
2023-04-08T16:58:05.600Z,15.18
2023-04-08T17:00:52.182Z,15.22
2023-04-08T17:03:39.124Z,15.04
2023-04-08T17:06:27.555Z,15.04
2023-04-08T17:12:01.379Z,15.07
2023-04-08T17:14:48.192Z,14.85
2023-04-08T17:17:35.035Z,14.89
2023-04-08T17:20:22.215Z,14.90
2023-04-08T17:23:10.266Z,14.60
2023-04-08T17:25:57.185Z,14.49
2023-04-08T17:28:47.260Z,14.43
2023-04-08T17:31:34.087Z,14.30
2023-04-08T17:34:20.528Z,14.26
2023-04-08T17:37:07.761Z,14.16
2023-04-08T17:39:55.756Z,14.14
2023-04-08T17:42:42.213Z,13.96
2023-04-08T17:45:29.017Z,13.81
2023-04-08T17:48:15.772Z,13.66
2023-04-08T17:51:02.809Z,13.59
2023-04-08T17:53:49.365Z,13.76
2023-04-08T17:56:39.367Z,13.71
2023-04-08T17:59:26.502Z,13.64
2023-04-08T18:02:19.351Z,13.69
2023-04-08T18:05:07.913Z,13.76
2023-04-08T18:07:54.605Z,13.66
2023-04-08T18:10:43.532Z,13.56
2023-04-08T18:13:31.689Z,13.61
2023-04-08T18:16:19.289Z,13.44
2023-04-08T18:19:05.838Z,13.29
2023-04-08T18:21:52.417Z,13.30
2023-04-08T18:24:42.880Z,13.28
2023-04-08T18:27:29.742Z,13.19
2023-04-08T18:30:17.990Z,13.19
2023-04-08T18:33:05.017Z,13.16
2023-04-08T18:35:52.735Z,12.94
2023-04-08T18:38:40.941Z,12.90
2023-04-08T18:41:28.052Z,12.74
2023-04-08T18:44:14.603Z,12.73
2023-04-08T18:47:03.263Z,12.62
2023-04-08T18:49:50.039Z,12.60
2023-04-08T18:52:37.565Z,12.40
2023-04-08T18:55:24.295Z,12.27
2023-04-08T18:58:11.361Z,12.28
2023-04-08T19:00:57.956Z,12.23
2023-04-08T19:03:46.218Z,12.25
2023-04-08T19:06:35.890Z,12.31
2023-04-08T19:09:30.088Z,12.19
2023-04-08T19:12:16.632Z,12.21
2023-04-08T19:15:04.439Z,12.20
2023-04-08T19:17:51.635Z,12.06
2023-04-08T19:20:39.757Z,12.11
2023-04-08T19:23:26.500Z,12.09
2023-04-08T19:26:15.345Z,12.06
2023-04-08T19:29:02.249Z,11.86
2023-04-08T19:31:48.855Z,11.75
2023-04-08T19:34:38.403Z,11.74
2023-04-08T19:37:27.045Z,12.01
2023-04-08T19:40:13.752Z,11.82
2023-04-08T19:43:00.413Z,11.81
2023-04-08T19:45:47.347Z,11.88
2023-04-08T19:48:34.873Z,11.69
2023-04-08T19:51:23.091Z,11.69
2023-04-08T19:54:10.934Z,11.68
2023-04-08T19:56:58.500Z,11.86
2023-04-08T19:59:45.053Z,11.75
2023-04-08T20:02:32.983Z,11.87
2023-04-08T20:05:20.699Z,11.88
2023-04-08T20:08:07.669Z,11.92
2023-04-08T20:10:55.686Z,11.79
2023-04-08T20:13:42.246Z,11.60
2023-04-08T20:16:29.290Z,11.49
2023-04-08T20:19:16.090Z,11.53
2023-04-08T20:22:03.242Z,11.48
2023-04-08T20:24:50.178Z,11.46
2023-04-08T20:27:38.593Z,11.51
2023-04-08T20:30:25.784Z,11.65
2023-04-08T20:33:16.251Z,11.50
2023-04-08T20:36:03.472Z,11.44
2023-04-08T20:38:53.905Z,11.46
2023-04-08T20:41:41.191Z,11.49
2023-04-08T20:44:29.982Z,11.43
2023-04-08T20:47:16.957Z,11.45
2023-04-08T20:50:03.905Z,11.31
2023-04-08T20:52:50.349Z,11.34
2023-04-08T20:55:37.212Z,11.52
2023-04-08T20:58:24.138Z,11.30
2023-04-08T21:01:12.245Z,11.25
2023-04-08T21:03:59.742Z,11.23
2023-04-08T21:06:49.314Z,11.13
2023-04-08T21:09:36.662Z,11.11
2023-04-08T21:12:23.385Z,11.08
2023-04-08T21:15:10.898Z,11.01
2023-04-08T21:17:58.895Z,10.93
2023-04-08T21:20:46.676Z,10.91
2023-04-08T21:23:33.496Z,11.03
2023-04-08T21:26:21.407Z,11.02
2023-04-08T21:29:07.914Z,10.98
2023-04-08T21:31:54.773Z,10.86
2023-04-08T21:34:47.679Z,10.90
2023-04-08T21:37:34.932Z,10.80
2023-04-08T21:40:21.445Z,10.69
2023-04-08T21:43:08.361Z,10.58
2023-04-08T21:46:00.599Z,10.51
2023-04-08T21:48:47.013Z,10.39
2023-04-08T21:51:35.958Z,10.33
2023-04-08T21:54:22.573Z,10.36
2023-04-08T21:57:09.329Z,10.31
2023-04-08T21:59:59.740Z,10.32
2023-04-08T22:02:47.372Z,10.28
2023-04-08T22:05:34.492Z,9.98
2023-04-08T22:08:23.405Z,10.19
2023-04-08T22:11:09.918Z,9.99
2023-04-08T22:13:58.152Z,9.90
2023-04-08T22:16:44.842Z,9.78
2023-04-08T22:19:31.511Z,9.63
2023-04-08T22:22:18.038Z,9.60
2023-04-08T22:25:07.601Z,9.49
2023-04-08T22:27:54.553Z,9.37
2023-04-08T22:30:41.348Z,9.25
2023-04-08T22:33:28.834Z,9.01
2023-04-08T22:36:15.624Z,8.90
2023-04-08T22:39:02.375Z,8.79
2023-04-08T22:41:50.598Z,8.75
2023-04-08T22:44:37.519Z,8.83
2023-04-08T22:47:24.545Z,8.65
2023-04-08T22:50:11.857Z,8.50
2023-04-08T22:52:58.451Z,8.49
2023-04-08T22:55:45.181Z,8.53
2023-04-08T22:58:33.479Z,8.26
2023-04-08T23:01:22.267Z,8.10
2023-04-08T23:04:09.083Z,8.02
2023-04-08T23:06:55.792Z,8.21
2023-04-08T23:09:42.882Z,8.01
2023-04-08T23:12:29.428Z,7.97
2023-04-08T23:15:17.561Z,8.19
2023-04-08T23:18:04.034Z,8.02
2023-04-08T23:20:54.526Z,7.92
2023-04-08T23:23:40.993Z,7.64
2023-04-08T23:26:27.609Z,7.70
2023-04-08T23:29:14.408Z,7.95
2023-04-08T23:32:02.502Z,7.50
2023-04-08T23:34:49.175Z,7.42
2023-04-08T23:37:35.910Z,7.64
2023-04-08T23:40:22.824Z,7.43
2023-04-08T23:43:09.691Z,7.26
2023-04-08T23:45:56.552Z,7.09
2023-04-08T23:48:44.735Z,7.07
2023-04-08T23:51:32.096Z,7.00
2023-04-08T23:54:18.603Z,6.98
2023-04-08T23:57:05.509Z,6.98
2023-04-08T23:59:52.111Z,6.98
